Richmond, KY

3:00 AM EDT on August 21, 2017 (GMT -0400)
Richmond

Weather History for KI39 - February, 2014

Change the Weather History Date:

Tuesday, February 18, 2014

  Actual Average (KLOZ) Record (KLOZ)
Temperature  
Mean Temperature 47 °F -  
Max Temperature 59 °F 51 °F 71 °F (1986)
Min Temperature 35 °F 29 °F -4 °F (1958)
Degree Days  
Heating Degree Days 18    
Moisture  
Dew Point 28 °F    
Average Humidity 52    
Maximum Humidity 87    
Minimum Humidity 20    
Precipitation  
Precipitation 0.00 in - - ()
Sea Level Pressure  
Sea Level Pressure 30.06 in    
Wind  
Wind Speed 10 mph (SSW)    
Max Wind Speed 14 mph    
Max Gust Speed 17 mph    
Visibility 10 miles    
Events      
Averages and records for this station are not official NWS values.
T = Trace of Precipitation, MM = Missing Value Source: NWS Daily Summary

Daily Weather History Graph

Daily Weather History Graph

Search for Another Location

Airport or City:

Trip Planner

Search our weather history database for the weather conditions in past years. The results will help you decide how hot, cold, wet, or windy it might be!

Date:

Astronomy

Feb. 18, 2014 Rise Set
Actual Time 7:23 AM EST 6:19 PM EST
Civil Twilight 6:56 AM EST 6:46 PM EST
Nautical Twilight 6:25 AM EST 7:17 PM EST
Astronomical Twilight 5:55 AM EST 7:47 PM EST
Moon 10:06 PM EST (2/18) 8:59 AM EST (2/18)
Length of Visible Light 11h 49m
Length of Day
10h 56m
Waning Gibbous, 87% of the Moon is Illuminated
Feb 18
Waning Gibbous
Feb 22
Last Quarter
Mar 1
New
Mar 8
First Quarter
Mar 16
Full

Hourly Weather History & Observations

Time (EST) Temp. Windchill Dew Point Humidity Pressure Visibility Wind Dir Wind Speed Gust Speed Precip Events Conditions
12:15 AM 37.4 °F 31.4 °F 32.0 °F 81% 30.08 in 10.0 mi WSW 8.1 mph 16.1 mph N/A   Scattered Clouds
12:35 AM 37.4 °F 30.8 °F 32.0 °F 81% 30.08 in 10.0 mi SW 9.2 mph - N/A   Clear
12:55 AM 35.6 °F 29.2 °F 32.0 °F 87% 30.08 in 10.0 mi SW 8.1 mph - N/A   Clear
1:15 AM 35.6 °F 28.0 °F 32.0 °F 87% 30.08 in 10.0 mi SW 10.4 mph - N/A   Clear
1:35 AM 37.4 °F 30.3 °F 32.0 °F 81% 30.08 in 10.0 mi SW 10.4 mph - N/A   Clear
1:55 AM 37.4 °F 30.8 °F 32.0 °F 81% 30.08 in 10.0 mi SW 9.2 mph - N/A   Clear
2:15 AM 35.6 °F 28.0 °F 32.0 °F 87% 30.08 in 10.0 mi SW 10.4 mph - N/A   Clear
2:35 AM 37.4 °F 30.3 °F 32.0 °F 81% 30.08 in 10.0 mi SW 10.4 mph - N/A   Clear
2:55 AM 37.4 °F 30.3 °F 32.0 °F 81% 30.08 in 10.0 mi SW 10.4 mph - N/A   Clear
3:15 AM 37.4 °F 29.8 °F 32.0 °F 81% 30.09 in 10.0 mi SW 11.5 mph - N/A   Clear
3:35 AM 37.4 °F 29.3 °F 32.0 °F 81% 30.08 in 10.0 mi SSW 12.7 mph - N/A   Clear
3:55 AM 37.4 °F 29.3 °F 32.0 °F 81% 30.09 in 10.0 mi SW 12.7 mph - N/A   Clear
4:15 AM 37.4 °F 29.8 °F 32.0 °F 81% 30.09 in 10.0 mi SW 11.5 mph - N/A   Clear
4:35 AM 37.4 °F 30.3 °F 32.0 °F 81% 30.09 in 10.0 mi SSW 10.4 mph - N/A   Clear
4:55 AM 35.6 °F 28.6 °F 32.0 °F 87% 30.10 in 10.0 mi SSW 9.2 mph - N/A   Clear
5:15 AM 35.6 °F 28.6 °F 32.0 °F 87% 30.11 in 10.0 mi SSW 9.2 mph - N/A   Clear
5:35 AM 37.4 °F 29.8 °F 30.2 °F 75% 30.12 in 10.0 mi SSW 11.5 mph - N/A   Clear
5:55 AM 37.4 °F 30.3 °F 30.2 °F 75% 30.12 in 10.0 mi SSW 10.4 mph - N/A   Clear
6:15 AM 37.4 °F 29.8 °F 30.2 °F 75% 30.13 in 10.0 mi SW 11.5 mph - N/A   Clear
6:35 AM 37.4 °F 30.3 °F 30.2 °F 75% 30.14 in 10.0 mi SSW 10.4 mph - N/A   Clear
6:55 AM 37.4 °F 30.8 °F 28.4 °F 70% 30.14 in 10.0 mi SSW 9.2 mph - N/A   Clear
7:15 AM 37.4 °F 31.4 °F 28.4 °F 70% 30.15 in 10.0 mi SSW 8.1 mph - N/A   Clear
7:35 AM 37.4 °F 30.8 °F 28.4 °F 70% 30.15 in 10.0 mi SSW 9.2 mph - N/A   Clear
7:55 AM 37.4 °F 30.8 °F 28.4 °F 70% 30.16 in 10.0 mi SSW 9.2 mph - N/A   Clear
8:15 AM 37.4 °F 31.4 °F 28.4 °F 70% 30.17 in 10.0 mi SSW 8.1 mph - N/A   Clear
8:35 AM 39.2 °F 33.0 °F 28.4 °F 65% 30.17 in 10.0 mi SSW 9.2 mph - N/A   Clear
8:55 AM 39.2 °F 32.5 °F 28.4 °F 65% 30.17 in 10.0 mi SSW 10.4 mph - N/A   Clear
9:15 AM 41.0 °F 35.8 °F 30.2 °F 65% 30.17 in 10.0 mi SSW 8.1 mph - N/A   Clear
9:35 AM 42.8 °F 37.5 °F 30.2 °F 61% 30.18 in 10.0 mi SSW 9.2 mph - N/A   Clear
9:55 AM 44.6 °F 39.2 °F 30.2 °F 57% 30.18 in 10.0 mi SSW 10.4 mph - N/A   Clear
10:15 AM 46.4 °F 41.9 °F 30.2 °F 53% 30.17 in 10.0 mi SSW 9.2 mph - N/A   Clear
10:35 AM 48.2 °F - 30.2 °F 50% 30.18 in 10.0 mi SSW 11.5 mph - N/A   Clear
10:55 AM 48.2 °F - 30.2 °F 50% 30.17 in 10.0 mi SSW 10.4 mph - N/A   Clear
11:15 AM 50.0 °F - 28.4 °F 43% 30.17 in 10.0 mi SW 10.4 mph - N/A   Clear
11:35 AM 51.8 °F - 28.4 °F 41% 30.17 in 10.0 mi SSW 9.2 mph - N/A   Clear
11:55 AM 51.8 °F - 26.6 °F 38% 30.16 in 10.0 mi SW 8.1 mph - N/A   Clear
12:15 PM 53.6 °F - 24.8 °F 33% 30.15 in 10.0 mi SSW 6.9 mph - N/A   Clear
12:35 PM 53.6 °F - 23.0 °F 30% 30.14 in 10.0 mi SSW 5.8 mph - N/A   Clear
12:55 PM 55.4 °F - 24.8 °F 31% 30.13 in 10.0 mi SW 5.8 mph - N/A   Clear
1:15 PM 55.4 °F - 24.8 °F 31% 30.11 in 10.0 mi South 5.8 mph - N/A   Clear
1:35 PM 57.2 °F - 23.0 °F 27% 30.10 in 10.0 mi SW 8.1 mph - N/A   Clear
1:55 PM 57.2 °F - 23.0 °F 27% 30.09 in 10.0 mi South 10.4 mph - N/A   Clear
2:15 PM 57.2 °F - 21.2 °F 25% 30.08 in 10.0 mi South 9.2 mph - N/A   Clear
2:35 PM 57.2 °F - 24.8 °F 29% 30.07 in 10.0 mi South 8.1 mph - N/A   Clear
2:55 PM 57.2 °F - 21.2 °F 25% 30.05 in 10.0 mi South 12.7 mph 16.1 mph N/A   Clear
3:15 PM 59.0 °F - 21.2 °F 23% 30.04 in 10.0 mi South 10.4 mph - N/A   Clear
3:35 PM 57.2 °F - 17.6 °F 21% 30.03 in 10.0 mi South 12.7 mph - N/A   Clear
3:55 PM 59.0 °F - 17.6 °F 20% 30.02 in 10.0 mi South 12.7 mph 16.1 mph N/A   Clear
4:15 PM 59.0 °F - 19.4 °F 22% 30.01 in 10.0 mi SSE 10.4 mph 17.3 mph N/A   Clear
4:35 PM 59.0 °F - 21.2 °F 23% 30.00 in 10.0 mi South 11.5 mph - N/A   Clear
4:55 PM 59.0 °F - 23.0 °F 25% 29.99 in 10.0 mi South 10.4 mph - N/A   Clear
5:15 PM 57.2 °F - 23.0 °F 27% 29.99 in 10.0 mi South 8.1 mph - N/A   Clear
5:35 PM 57.2 °F - 23.0 °F 27% 29.98 in 10.0 mi South 9.2 mph - N/A   Clear
5:55 PM 55.4 °F - 23.0 °F 29% 29.97 in 10.0 mi SSE 8.1 mph - N/A   Clear
6:15 PM 55.4 °F - 23.0 °F 29% 29.96 in 10.0 mi South 6.9 mph - N/A   Clear
6:35 PM 53.6 °F - 24.8 °F 33% 29.94 in 10.0 mi SSE 6.9 mph - N/A   Clear
6:55 PM 53.6 °F - 24.8 °F 33% 29.94 in 10.0 mi SSE 6.9 mph - N/A   Clear
7:15 PM 53.6 °F - 24.8 °F 33% 29.93 in 10.0 mi South 9.2 mph - N/A   Clear
7:35 PM 53.6 °F - 24.8 °F 33% 29.93 in 10.0 mi South 10.4 mph - N/A   Clear
7:55 PM 53.6 °F - 24.8 °F 33% 29.94 in 10.0 mi South 9.2 mph 17.3 mph N/A   Clear
8:15 PM 51.8 °F - 24.8 °F 35% 29.94 in 10.0 mi SSW 9.2 mph - N/A   Clear
8:35 PM 51.8 °F - 24.8 °F 35% 29.93 in 10.0 mi SSW 11.5 mph 16.1 mph N/A   Clear
8:55 PM 51.8 °F - 24.8 °F 35% 29.92 in 10.0 mi South 9.2 mph - N/A   Clear
9:15 PM 51.8 °F - 24.8 °F 35% 29.91 in 10.0 mi South 9.2 mph - N/A   Clear
9:35 PM 51.8 °F - 26.6 °F 38% 29.92 in 10.0 mi South 10.4 mph 16.1 mph N/A   Clear
9:55 PM 50.0 °F - 28.4 °F 43% 29.93 in 10.0 mi SSW 9.2 mph - N/A   Clear
10:15 PM 51.8 °F - 28.4 °F 41% 29.93 in 10.0 mi South 8.1 mph - N/A   Mostly Cloudy
10:35 PM 51.8 °F - 30.2 °F 44% 29.92 in 10.0 mi South 8.1 mph - N/A   Mostly Cloudy
10:55 PM 51.8 °F - 30.2 °F 44% 29.91 in 10.0 mi SSW 5.8 mph - N/A   Mostly Cloudy
11:15 PM 51.8 °F - 30.2 °F 44% 29.90 in 10.0 mi South 6.9 mph - N/A   Mostly Cloudy
11:35 PM 53.6 °F - 32.0 °F 44% 29.89 in 10.0 mi South 10.4 mph - N/A   Mostly Cloudy
11:55 PM 53.6 °F - 33.8 °F 47% 29.88 in 10.0 mi South 13.8 mph 17.3 mph N/A   Mostly Cloudy